createdAt,value
2018-12-20T00:02:22.087Z,9.62
2018-12-20T00:04:49.294Z,9.65
2018-12-20T00:07:16.604Z,9.54
2018-12-20T00:09:43.917Z,9.55
2018-12-20T00:12:11.071Z,9.60
2018-12-20T00:14:38.255Z,9.64
2018-12-20T00:17:11.799Z,9.64
2018-12-20T00:19:38.893Z,9.55
2018-12-20T00:22:06.502Z,9.53
2018-12-20T00:24:33.662Z,9.64
2018-12-20T00:27:01.410Z,9.65
2018-12-20T00:29:28.744Z,9.68
2018-12-20T00:31:55.951Z,9.70
2018-12-20T00:34:23.360Z,9.74
2018-12-20T00:36:50.437Z,9.62
2018-12-20T00:39:18.460Z,9.81
2018-12-20T00:41:45.576Z,9.81
2018-12-20T00:44:12.752Z,9.77
2018-12-20T00:46:40.665Z,9.64
2018-12-20T00:49:07.816Z,9.56
2018-12-20T00:51:35.064Z,9.51
2018-12-20T00:54:02.481Z,9.52
2018-12-20T00:56:29.566Z,9.55
2018-12-20T00:58:56.728Z,9.60
2018-12-20T01:01:23.874Z,9.69
2018-12-20T01:03:52.173Z,9.67
2018-12-20T01:06:19.275Z,9.62
2018-12-20T01:08:47.397Z,9.66
2018-12-20T01:11:15.151Z,9.75
2018-12-20T01:13:42.277Z,9.75
2018-12-20T01:16:09.440Z,9.80
2018-12-20T01:18:36.710Z,9.86
2018-12-20T01:21:03.921Z,9.83
2018-12-20T01:23:31.993Z,9.80
2018-12-20T01:25:59.170Z,9.65
2018-12-20T01:28:26.324Z,9.77
2018-12-20T01:30:53.617Z,9.85
2018-12-20T01:33:20.860Z,9.85
2018-12-20T01:35:48.029Z,9.71
2018-12-20T01:38:15.223Z,9.66
2018-12-20T01:40:42.370Z,9.66
2018-12-20T01:43:09.655Z,9.68
2018-12-20T01:45:36.998Z,9.65
2018-12-20T01:48:04.286Z,9.64
2018-12-20T01:50:31.469Z,9.67
2018-12-20T01:52:58.622Z,9.69
2018-12-20T01:55:26.543Z,9.61
2018-12-20T01:57:53.647Z,9.66
2018-12-20T02:00:21.210Z,9.74
2018-12-20T02:02:48.477Z,9.67
2018-12-20T02:05:15.843Z,9.65
2018-12-20T02:07:42.951Z,9.42
2018-12-20T02:10:10.307Z,9.70
2018-12-20T02:12:37.605Z,9.73
2018-12-20T02:15:05.546Z,9.77
2018-12-20T02:17:32.727Z,9.72
2018-12-20T02:19:59.826Z,9.79
2018-12-20T02:22:26.904Z,9.84
2018-12-20T02:24:54.115Z,9.84
2018-12-20T02:27:21.277Z,9.67
2018-12-20T02:29:48.464Z,9.63
2018-12-20T02:32:15.649Z,9.58
2018-12-20T02:34:42.728Z,9.60
2018-12-20T02:37:09.994Z,9.53
2018-12-20T02:39:37.161Z,9.48
2018-12-20T02:42:04.273Z,9.51
2018-12-20T02:44:31.610Z,9.55
2018-12-20T02:46:59.357Z,9.50
2018-12-20T02:49:26.681Z,9.48
2018-12-20T02:51:53.959Z,9.45
2018-12-20T02:54:21.056Z,9.46
2018-12-20T02:56:48.370Z,9.52
2018-12-20T02:59:15.823Z,9.59
2018-12-20T03:01:43.118Z,9.47
2018-12-20T03:04:10.382Z,9.33
2018-12-20T03:06:37.755Z,9.22
2018-12-20T03:09:07.209Z,9.26
2018-12-20T03:11:34.556Z,9.27
2018-12-20T03:14:02.054Z,9.37
2018-12-20T03:16:29.569Z,9.44
2018-12-20T03:18:56.669Z,9.52
2018-12-20T03:21:23.951Z,9.30
2018-12-20T03:23:51.211Z,9.21
2018-12-20T03:26:18.422Z,9.27
2018-12-20T03:28:45.647Z,9.23
2018-12-20T03:31:12.757Z,9.31
2018-12-20T03:33:40.540Z,9.41
2018-12-20T03:36:07.968Z,9.44
2018-12-20T03:38:35.386Z,9.46
2018-12-20T03:41:02.497Z,9.37
2018-12-20T03:43:29.662Z,9.32
2018-12-20T03:45:57.012Z,9.23
2018-12-20T03:48:24.298Z,9.26
2018-12-20T03:50:51.540Z,9.18
2018-12-20T03:53:18.755Z,9.33
2018-12-20T03:55:45.954Z,9.27
2018-12-20T03:58:13.151Z,9.30
2018-12-20T04:00:40.767Z,9.33
2018-12-20T04:03:08.471Z,9.42
2018-12-20T04:05:36.217Z,9.26
2018-12-20T04:08:04.301Z,9.26
2018-12-20T04:10:33.102Z,9.26
2018-12-20T04:13:00.848Z,9.30
2018-12-20T04:15:28.104Z,9.47
2018-12-20T04:17:55.297Z,9.40
2018-12-20T04:20:22.602Z,9.39
2018-12-20T04:22:50.038Z,9.29
2018-12-20T04:25:17.233Z,9.31
2018-12-20T04:27:44.372Z,9.36
2018-12-20T04:30:12.071Z,9.22
2018-12-20T04:32:39.757Z,9.30
2018-12-20T04:35:07.646Z,9.12
2018-12-20T04:37:34.896Z,9.06
2018-12-20T04:40:02.336Z,9.18
2018-12-20T04:42:29.748Z,9.21
2018-12-20T04:44:56.840Z,9.18
2018-12-20T04:47:24.137Z,9.19
2018-12-20T04:49:51.387Z,9.23
2018-12-20T04:52:18.683Z,9.24
2018-12-20T04:54:46.018Z,9.29
2018-12-20T04:57:13.346Z,9.29
2018-12-20T04:59:41.380Z,9.22
2018-12-20T05:02:09.420Z,9.30
2018-12-20T05:04:36.657Z,9.21
2018-12-20T05:07:03.848Z,9.11
2018-12-20T05:09:31.132Z,9.16
2018-12-20T05:11:58.491Z,9.20
2018-12-20T05:14:26.454Z,9.21
2018-12-20T05:16:53.874Z,9.20
2018-12-20T05:19:21.244Z,9.21
2018-12-20T05:21:48.433Z,9.18
2018-12-20T05:24:15.533Z,8.38
2018-12-20T05:26:43.440Z,9.13
2018-12-20T05:29:10.628Z,9.09
2018-12-20T05:31:37.770Z,9.12
2018-12-20T05:34:05.052Z,9.18
2018-12-20T05:36:32.238Z,9.08
2018-12-20T05:38:59.544Z,9.05
2018-12-20T05:41:27.001Z,9.05
2018-12-20T05:43:54.906Z,9.10
2018-12-20T05:46:22.052Z,9.10
2018-12-20T05:48:49.166Z,9.12
2018-12-20T05:51:16.574Z,9.14
2018-12-20T05:53:43.986Z,9.15
2018-12-20T05:56:12.141Z,9.18
2018-12-20T05:58:39.288Z,9.13
2018-12-20T06:01:06.373Z,9.04
2018-12-20T06:03:33.807Z,8.99
2018-12-20T06:06:01.179Z,9.07
2018-12-20T06:08:28.424Z,9.05
2018-12-20T06:10:55.872Z,9.11
2018-12-20T06:13:23.412Z,9.15
2018-12-20T06:15:50.745Z,9.20
2018-12-20T06:18:18.084Z,9.18
2018-12-20T06:20:45.373Z,8.92
2018-12-20T06:23:12.587Z,9.16
2018-12-20T06:25:40.246Z,9.20
2018-12-20T06:28:07.335Z,9.20
2018-12-20T06:30:34.458Z,9.28
2018-12-20T06:33:01.536Z,9.33
2018-12-20T06:35:28.840Z,9.35
2018-12-20T06:37:56.564Z,9.39
2018-12-20T06:40:23.716Z,9.45
2018-12-20T06:42:50.825Z,9.54
2018-12-20T06:45:17.901Z,9.57
2018-12-20T06:47:45.000Z,9.40
2018-12-20T06:50:12.035Z,9.50
2018-12-20T06:52:39.181Z,9.45
2018-12-20T06:55:06.332Z,9.43
2018-12-20T06:57:33.486Z,9.35
2018-12-20T07:00:00.612Z,9.36
2018-12-20T07:02:27.782Z,9.33
2018-12-20T07:04:54.961Z,9.33
2018-12-20T07:07:22.051Z,9.33
2018-12-20T07:09:49.849Z,9.38
2018-12-20T07:12:17.071Z,9.29
2018-12-20T07:14:44.251Z,9.35
2018-12-20T07:17:12.508Z,9.25
2018-12-20T07:19:39.678Z,9.28
2018-12-20T07:22:06.871Z,9.33
2018-12-20T07:24:33.959Z,9.27
2018-12-20T07:27:01.151Z,9.25
2018-12-20T07:29:28.217Z,9.27
2018-12-20T07:31:55.450Z,9.21
2018-12-20T07:34:22.504Z,9.18
2018-12-20T07:36:49.595Z,9.20
2018-12-20T07:39:16.897Z,9.21
2018-12-20T07:41:43.951Z,9.20
2018-12-20T07:44:12.177Z,9.13
2018-12-20T07:46:39.356Z,9.12
2018-12-20T07:49:06.387Z,9.14
2018-12-20T07:51:33.592Z,9.19
2018-12-20T07:54:00.679Z,9.15
2018-12-20T07:56:27.828Z,9.12
2018-12-20T07:58:55.071Z,9.07
2018-12-20T08:01:22.480Z,9.10
2018-12-20T08:03:49.744Z,9.04
2018-12-20T08:06:16.858Z,9.09
2018-12-20T08:08:45.962Z,9.18
2018-12-20T08:11:13.096Z,9.07
2018-12-20T08:13:40.393Z,9.13
2018-12-20T08:16:08.156Z,9.04
2018-12-20T08:18:35.399Z,9.04
2018-12-20T08:21:03.500Z,9.03
2018-12-20T08:23:30.972Z,9.09
2018-12-20T08:25:58.216Z,9.15
2018-12-20T08:28:25.948Z,9.13
2018-12-20T08:30:53.771Z,9.18
2018-12-20T08:33:21.748Z,9.23
2018-12-20T08:35:48.934Z,9.25
2018-12-20T08:38:16.084Z,9.32
2018-12-20T08:40:43.312Z,9.38
2018-12-20T08:43:11.107Z,9.33
2018-12-20T08:45:38.316Z,9.20
2018-12-20T08:48:05.412Z,9.17
2018-12-20T08:50:32.500Z,9.19
2018-12-20T08:52:59.608Z,9.04
2018-12-20T08:55:26.729Z,9.13
2018-12-20T08:57:53.892Z,9.07
2018-12-20T09:00:21.145Z,9.02
2018-12-20T09:02:48.289Z,8.99
2018-12-20T09:05:15.372Z,8.90
2018-12-20T09:07:42.499Z,8.90
2018-12-20T09:10:09.717Z,8.88
2018-12-20T09:12:36.952Z,8.98
2018-12-20T09:15:04.190Z,8.99
2018-12-20T09:17:31.866Z,9.02
2018-12-20T09:19:58.967Z,9.14
2018-12-20T09:22:26.068Z,9.10
2018-12-20T09:24:53.275Z,9.18
2018-12-20T09:27:20.746Z,9.16
2018-12-20T09:29:48.026Z,9.15
2018-12-20T09:32:15.096Z,9.04
2018-12-20T09:34:42.153Z,9.16
2018-12-20T09:37:09.242Z,9.13
2018-12-20T09:39:36.372Z,9.10
2018-12-20T09:42:03.552Z,9.10
2018-12-20T09:44:31.131Z,9.13
2018-12-20T09:47:11.386Z,9.06
2018-12-20T09:49:33.121Z,9.09
2018-12-20T09:52:00.252Z,9.12
2018-12-20T09:54:27.472Z,9.24
2018-12-20T09:56:54.592Z,9.21
2018-12-20T09:59:21.899Z,9.15
2018-12-20T10:01:49.341Z,9.22
2018-12-20T10:04:16.571Z,9.15
2018-12-20T10:06:43.812Z,9.17
2018-12-20T10:09:11.032Z,9.12
2018-12-20T10:11:38.357Z,9.04
2018-12-20T10:14:05.521Z,9.00
2018-12-20T10:16:33.097Z,8.81
2018-12-20T10:19:00.232Z,8.80
2018-12-20T10:21:27.496Z,8.74
2018-12-20T10:23:54.735Z,8.70
2018-12-20T10:26:21.815Z,8.69
2018-12-20T10:28:48.875Z,8.80
2018-12-20T10:31:15.992Z,8.82
2018-12-20T10:33:43.077Z,8.86
2018-12-20T10:36:10.334Z,8.76
2018-12-20T10:38:38.177Z,8.81
2018-12-20T10:41:05.890Z,8.38
2018-12-20T10:43:33.902Z,8.69
2018-12-20T10:46:01.007Z,8.73
2018-12-20T10:48:28.092Z,8.85
2018-12-20T10:50:55.340Z,8.82
2018-12-20T10:53:22.450Z,8.79
2018-12-20T10:55:49.607Z,8.77
2018-12-20T10:58:16.705Z,8.87
2018-12-20T11:00:49.542Z,8.81
2018-12-20T11:03:22.662Z,8.64
2018-12-20T11:05:55.382Z,8.66
2018-12-20T11:08:23.743Z,8.67
2018-12-20T11:10:55.857Z,8.60
2018-12-20T11:13:23.983Z,8.68
2018-12-20T11:15:51.213Z,8.69
2018-12-20T11:18:18.327Z,8.33
2018-12-20T11:20:45.444Z,8.81
2018-12-20T11:23:12.583Z,8.74
2018-12-20T11:25:39.942Z,8.77
2018-12-20T11:28:07.027Z,8.81
2018-12-20T11:30:34.111Z,8.76
2018-12-20T11:33:01.370Z,8.67
2018-12-20T11:35:29.080Z,8.81
2018-12-20T11:37:56.144Z,8.90
2018-12-20T11:40:23.725Z,8.88
2018-12-20T11:42:50.866Z,8.80
2018-12-20T11:45:18.065Z,8.79
2018-12-20T11:47:45.974Z,8.86
2018-12-20T11:50:13.560Z,8.85
2018-12-20T11:52:42.510Z,8.93
2018-12-20T11:55:09.837Z,8.93
2018-12-20T11:57:36.975Z,9.00
2018-12-20T12:00:06.339Z,9.03
2018-12-20T12:02:33.654Z,9.06
2018-12-20T12:05:01.721Z,9.13
2018-12-20T12:07:29.855Z,9.06
2018-12-20T12:09:56.979Z,8.94
2018-12-20T12:12:24.179Z,9.01
2018-12-20T12:14:51.338Z,8.99
2018-12-20T12:17:18.483Z,8.87
2018-12-20T12:19:45.759Z,8.91
2018-12-20T12:22:12.895Z,8.89
2018-12-20T12:24:40.048Z,8.95
2018-12-20T12:27:07.239Z,8.92
2018-12-20T12:29:34.418Z,9.01
2018-12-20T12:32:01.607Z,9.10
2018-12-20T12:34:29.738Z,9.05
2018-12-20T12:36:57.056Z,9.00
2018-12-20T12:39:25.060Z,8.96
2018-12-20T12:41:52.255Z,8.95
2018-12-20T12:44:21.023Z,9.04
2018-12-20T12:46:48.089Z,9.01
2018-12-20T12:49:15.361Z,9.11
2018-12-20T12:51:43.816Z,9.18
2018-12-20T12:54:11.858Z,9.21
2018-12-20T12:56:39.069Z,9.32
2018-12-20T12:59:06.196Z,9.35
2018-12-20T13:01:33.395Z,9.26
2018-12-20T13:04:00.669Z,9.20
2018-12-20T13:06:27.787Z,9.16
2018-12-20T13:08:54.899Z,9.19
2018-12-20T13:11:22.029Z,9.22
2018-12-20T13:13:49.374Z,9.34
2018-12-20T13:16:17.244Z,9.35
2018-12-20T13:18:44.612Z,9.40
2018-12-20T13:21:11.797Z,9.38
2018-12-20T13:23:38.917Z,9.41
2018-12-20T13:26:06.057Z,9.09
2018-12-20T13:28:33.152Z,9.35
2018-12-20T13:31:00.297Z,9.31
2018-12-20T13:33:27.412Z,9.26
2018-12-20T13:35:54.524Z,9.21
2018-12-20T13:38:21.661Z,9.22
2018-12-20T13:40:48.885Z,9.28
2018-12-20T13:43:16.008Z,9.30
2018-12-20T13:45:43.148Z,9.28
2018-12-20T13:48:10.371Z,9.43
2018-12-20T13:50:37.548Z,9.37
2018-12-20T13:53:04.749Z,8.18
2018-12-20T13:55:31.891Z,9.23
2018-12-20T13:57:59.099Z,9.28
2018-12-20T14:00:26.514Z,9.31
2018-12-20T14:02:53.758Z,9.35
2018-12-20T14:05:21.176Z,9.35
2018-12-20T14:07:48.492Z,9.41
2018-12-20T14:10:15.707Z,9.30
2018-12-20T14:12:44.267Z,9.37
2018-12-20T14:15:12.448Z,9.42
2018-12-20T14:17:39.587Z,9.44
2018-12-20T14:20:07.307Z,9.39
2018-12-20T14:22:34.888Z,9.41
2018-12-20T14:25:03.328Z,9.41
2018-12-20T14:27:31.040Z,9.47
2018-12-20T14:29:58.232Z,9.46
2018-12-20T14:32:25.352Z,9.44
2018-12-20T14:34:54.441Z,9.33
2018-12-20T14:37:21.686Z,9.37
2018-12-20T14:39:49.551Z,9.40
2018-12-20T14:42:16.890Z,9.32
2018-12-20T14:44:44.209Z,9.31
2018-12-20T14:47:11.355Z,9.27
2018-12-20T14:49:38.459Z,9.24
2018-12-20T14:52:05.688Z,9.15
2018-12-20T14:54:32.859Z,9.12
2018-12-20T14:57:00.036Z,9.07
2018-12-20T14:59:27.171Z,9.07
2018-12-20T15:01:54.284Z,9.05
2018-12-20T15:04:22.188Z,9.08
2018-12-20T15:06:50.196Z,9.14
2018-12-20T15:09:17.263Z,9.20
2018-12-20T15:11:44.700Z,9.10
2018-12-20T15:14:12.879Z,9.12
2018-12-20T15:16:40.540Z,9.08
2018-12-20T15:19:07.762Z,9.09
2018-12-20T15:21:34.926Z,9.12
2018-12-20T15:24:02.051Z,9.05
2018-12-20T15:26:29.244Z,9.01
2018-12-20T15:28:56.466Z,9.03
2018-12-20T15:31:24.127Z,8.96
2018-12-20T15:33:51.677Z,8.84
2018-12-20T15:36:18.811Z,8.86
2018-12-20T15:38:45.920Z,8.86
2018-12-20T15:41:13.220Z,8.96
2018-12-20T15:43:40.323Z,8.93
2018-12-20T15:46:07.819Z,8.96
2018-12-20T15:48:35.631Z,8.95
2018-12-20T15:51:02.836Z,8.97
2018-12-20T15:53:30.049Z,8.91
2018-12-20T15:55:57.344Z,8.90
2018-12-20T15:58:24.698Z,8.87
2018-12-20T16:00:52.131Z,8.85
2018-12-20T16:03:20.455Z,8.93
2018-12-20T16:05:48.398Z,9.00
2018-12-20T16:08:15.655Z,8.96
2018-12-20T16:10:42.876Z,8.91
2018-12-20T16:13:10.222Z,8.93
2018-12-20T16:15:37.382Z,9.03
2018-12-20T16:18:04.521Z,8.94
2018-12-20T16:20:31.664Z,8.97
2018-12-20T16:22:58.731Z,8.93
2018-12-20T16:25:25.864Z,9.03
2018-12-20T16:27:53.233Z,9.03
2018-12-20T16:30:20.523Z,8.95
2018-12-20T16:32:47.785Z,8.91
2018-12-20T16:35:14.895Z,8.95
2018-12-20T16:37:42.065Z,9.00
2018-12-20T16:40:09.252Z,9.00
2018-12-20T16:42:36.517Z,9.01
2018-12-20T16:45:04.440Z,9.02
2018-12-20T16:47:31.593Z,8.98
2018-12-20T16:49:58.756Z,9.00
2018-12-20T16:52:25.904Z,8.95
2018-12-20T16:54:53.108Z,8.93
2018-12-20T16:57:20.750Z,8.92
2018-12-20T16:59:47.775Z,8.93
2018-12-20T17:02:15.025Z,8.99
2018-12-20T17:04:42.194Z,8.94
2018-12-20T17:07:09.336Z,8.88
2018-12-20T17:09:36.593Z,8.83
2018-12-20T17:12:03.675Z,8.93
2018-12-20T17:14:31.807Z,8.95
2018-12-20T17:16:58.904Z,8.96
2018-12-20T17:19:26.169Z,8.90
2018-12-20T17:21:53.399Z,8.92
2018-12-20T17:24:20.730Z,8.94
2018-12-20T17:26:47.859Z,8.94
2018-12-20T17:29:14.993Z,8.91
2018-12-20T17:31:42.199Z,8.87
2018-12-20T17:34:09.434Z,8.96
2018-12-20T17:36:36.928Z,8.90
2018-12-20T17:44:05.663Z,8.75
2018-12-20T17:46:32.868Z,8.66
2018-12-20T17:48:59.956Z,8.69
2018-12-20T17:51:27.114Z,8.54
2018-12-20T17:53:54.210Z,7.92
2018-12-20T17:56:21.333Z,8.48
2018-12-20T17:58:48.605Z,8.53
2018-12-20T18:01:15.756Z,8.51
2018-12-20T18:03:42.854Z,8.60
2018-12-20T18:06:09.997Z,8.60
2018-12-20T18:08:37.455Z,8.64
2018-12-20T18:11:04.611Z,8.66
2018-12-20T18:13:32.781Z,8.77
2018-12-20T18:15:59.924Z,8.76
2018-12-20T18:18:27.716Z,6.30
2018-12-20T18:20:54.846Z,8.60
2018-12-20T18:23:22.028Z,8.62
2018-12-20T18:25:49.147Z,8.59
2018-12-20T18:28:16.637Z,8.56
2018-12-20T18:30:43.738Z,8.43
2018-12-20T18:33:10.999Z,8.14
2018-12-20T18:35:38.660Z,8.49
2018-12-20T18:38:06.053Z,8.52
2018-12-20T18:40:33.212Z,8.57
2018-12-20T18:43:01.765Z,8.50
2018-12-20T18:45:29.168Z,8.55
2018-12-20T18:47:56.356Z,8.57
2018-12-20T18:50:23.455Z,8.49
2018-12-20T18:52:50.774Z,8.60
2018-12-20T18:55:17.997Z,8.57
2018-12-20T18:57:45.148Z,8.58
2018-12-20T19:00:12.272Z,8.59
2018-12-20T19:02:39.537Z,8.52
2018-12-20T19:05:07.681Z,8.54
2018-12-20T19:07:35.001Z,8.48
2018-12-20T19:10:02.190Z,8.54
2018-12-20T19:12:30.056Z,8.53
2018-12-20T19:14:57.845Z,8.56
2018-12-20T19:17:24.961Z,8.53
2018-12-20T19:19:56.187Z,8.49
2018-12-20T19:22:21.349Z,8.57
2018-12-20T19:24:49.259Z,8.61
2018-12-20T19:27:16.476Z,8.63
2018-12-20T19:29:43.695Z,8.52
2018-12-20T19:32:10.775Z,8.63
2018-12-20T19:34:37.929Z,8.60
2018-12-20T19:37:05.077Z,8.66
2018-12-20T19:39:32.235Z,8.64
2018-12-20T19:42:16.089Z,8.59
2018-12-20T19:44:43.913Z,8.67
2018-12-20T19:47:11.115Z,8.59
2018-12-20T19:49:38.326Z,8.59
2018-12-20T19:52:05.524Z,8.57
2018-12-20T19:54:32.607Z,8.63
2018-12-20T19:56:59.875Z,8.59
2018-12-20T19:59:27.363Z,8.59
2018-12-20T20:01:54.534Z,8.64
2018-12-20T20:04:21.720Z,8.67
2018-12-20T20:06:48.931Z,8.55
2018-12-20T20:09:16.272Z,8.53
2018-12-20T20:11:44.187Z,8.56
2018-12-20T20:14:11.738Z,8.49
2018-12-20T20:16:38.888Z,8.44
2018-12-20T20:19:06.032Z,8.40
2018-12-20T20:21:33.372Z,8.47
2018-12-20T20:24:00.619Z,8.51
2018-12-20T20:26:28.375Z,8.58
2018-12-20T20:28:55.533Z,8.61
2018-12-20T20:31:22.775Z,8.70
2018-12-20T20:33:49.978Z,8.66
2018-12-20T20:36:17.217Z,8.70
2018-12-20T20:38:44.392Z,8.88
2018-12-20T20:41:12.303Z,8.91
2018-12-20T20:43:39.456Z,8.90
2018-12-20T20:46:06.591Z,8.84
2018-12-20T20:48:33.745Z,8.89
2018-12-20T20:51:00.859Z,8.94
2018-12-20T20:53:27.938Z,8.91
2018-12-20T20:55:55.084Z,8.88
2018-12-20T20:58:22.231Z,8.98
2018-12-20T21:00:49.429Z,8.89
2018-12-20T21:03:16.503Z,8.89
2018-12-20T21:05:43.756Z,8.88
2018-12-20T21:08:11.609Z,8.94
2018-12-20T21:10:38.720Z,8.94
2018-12-20T21:13:05.896Z,8.88
2018-12-20T21:15:34.287Z,8.93
2018-12-20T21:18:01.492Z,8.96
2018-12-20T21:20:30.818Z,8.94
2018-12-20T21:22:57.800Z,8.88
2018-12-20T21:25:24.870Z,8.65
2018-12-20T21:27:51.999Z,8.96
2018-12-20T21:30:19.123Z,8.94
2018-12-20T21:32:46.747Z,8.93
2018-12-20T21:35:13.877Z,8.89
2018-12-20T21:37:40.983Z,8.85
2018-12-20T21:40:08.136Z,8.93
2018-12-20T21:42:35.419Z,8.94
2018-12-20T21:45:02.561Z,8.96
2018-12-20T21:47:29.976Z,9.04
2018-12-20T21:49:57.084Z,9.12
2018-12-20T21:52:25.257Z,9.11
2018-12-20T21:54:52.328Z,9.11
2018-12-20T21:57:21.453Z,9.14
2018-12-20T21:59:48.757Z,9.16
2018-12-20T22:02:15.993Z,9.13
2018-12-20T22:04:43.089Z,9.08
2018-12-20T22:07:10.188Z,9.04
2018-12-20T22:09:37.292Z,9.13
2018-12-20T22:12:04.460Z,9.10
2018-12-20T22:14:31.565Z,9.20
2018-12-20T22:16:58.670Z,9.14
2018-12-20T22:19:25.921Z,9.20
2018-12-20T22:21:52.968Z,9.18
2018-12-20T22:24:20.207Z,9.09
2018-12-20T22:26:47.323Z,9.14
2018-12-20T22:29:14.368Z,9.15
2018-12-20T22:31:41.989Z,9.09
2018-12-20T22:34:09.093Z,9.17
2018-12-20T22:36:36.206Z,9.21
2018-12-20T22:39:04.415Z,9.21
2018-12-20T22:41:31.616Z,9.27
2018-12-20T22:43:58.937Z,9.17
2018-12-20T22:46:26.112Z,9.29
2018-12-20T22:48:53.394Z,9.23
2018-12-20T22:51:20.493Z,9.21
2018-12-20T22:53:47.610Z,9.19
2018-12-20T22:56:14.844Z,9.22
2018-12-20T22:58:42.644Z,9.21
2018-12-20T23:01:09.860Z,9.35
2018-12-20T23:03:37.271Z,9.28
2018-12-20T23:11:02.703Z,9.13
2018-12-20T23:13:30.185Z,9.20
2018-12-20T23:15:57.303Z,9.09
2018-12-20T23:18:24.388Z,9.15
2018-12-20T23:20:51.480Z,9.19
2018-12-20T23:23:18.714Z,9.22
2018-12-20T23:25:45.856Z,9.21
2018-12-20T23:28:12.976Z,9.23
2018-12-20T23:30:40.099Z,9.32
2018-12-20T23:33:07.256Z,9.27
2018-12-20T23:35:34.584Z,9.37
2018-12-20T23:38:01.737Z,9.28
2018-12-20T23:40:28.870Z,9.26
2018-12-20T23:42:56.023Z,9.25
2018-12-20T23:45:23.170Z,9.22
2018-12-20T23:47:50.223Z,9.33
2018-12-20T23:50:17.532Z,8.90
2018-12-20T23:52:44.681Z,9.31
2018-12-20T23:55:11.771Z,9.29
2018-12-20T23:57:38.804Z,9.17
